createdAt,value
2022-12-18T00:00:18.809Z,13.40
2022-12-18T00:05:20.197Z,16.98
2022-12-18T00:10:22.208Z,12.82
2022-12-18T00:15:23.501Z,15.95
2022-12-18T00:20:26.522Z,14.30
2022-12-18T00:25:28.049Z,12.85
2022-12-18T00:30:29.414Z,13.80
2022-12-18T00:35:30.759Z,11.57
2022-12-18T00:40:32.096Z,19.23
2022-12-18T00:45:33.496Z,11.50
2022-12-18T00:50:34.937Z,29.90
2022-12-18T00:55:37.868Z,11.57
2022-12-18T01:00:39.349Z,13.82
2022-12-18T01:05:41.780Z,14.77
2022-12-18T01:10:43.161Z,11.65
2022-12-18T01:15:51.233Z,11.68
2022-12-18T01:20:52.534Z,10.07
2022-12-18T01:25:53.825Z,8.77
2022-12-18T01:30:55.125Z,14.45
2022-12-18T01:35:56.428Z,12.27
2022-12-18T01:41:01.462Z,15.32
2022-12-18T01:46:02.817Z,19.35
2022-12-18T01:51:06.212Z,11.15
2022-12-18T01:56:07.693Z,12.07
2022-12-18T02:01:09.741Z,11.68
2022-12-18T02:06:14.840Z,16.17
2022-12-18T02:11:20.973Z,17.23
2022-12-18T02:16:40.241Z,15.00
2022-12-18T02:21:47.106Z,13.55
2022-12-18T02:26:53.063Z,9.25
2022-12-18T02:36:59.449Z,16.23
2022-12-18T02:42:08.521Z,10.82
2022-12-18T02:47:11.238Z,11.20
2022-12-18T02:52:19.359Z,15.57
2022-12-18T02:57:25.610Z,12.30
2022-12-18T03:02:30.161Z,16.20
2022-12-18T03:07:51.967Z,11.13
2022-12-18T03:13:01.688Z,11.38
2022-12-18T03:23:10.836Z,11.25
2022-12-18T03:28:18.361Z,14.18
2022-12-18T03:33:26.502Z,12.80
2022-12-18T03:38:29.597Z,11.10
2022-12-18T03:43:49.462Z,11.10
2022-12-18T03:48:53.817Z,12.02
2022-12-18T03:53:56.322Z,10.40
2022-12-18T03:59:03.869Z,12.98
2022-12-18T04:04:07.973Z,15.98
2022-12-18T04:09:12.961Z,13.27
2022-12-18T04:14:18.742Z,17.42
2022-12-18T04:19:24.068Z,13.85
2022-12-18T04:24:27.450Z,12.55
2022-12-18T04:29:39.287Z,8.88
2022-12-18T04:34:40.727Z,8.57
2022-12-18T04:39:42.328Z,14.85
2022-12-18T04:44:50.730Z,8.93
2022-12-18T04:49:52.106Z,11.18
2022-12-18T04:54:53.413Z,13.18
2022-12-18T04:59:54.924Z,9.90
2022-12-18T05:04:56.237Z,10.52
2022-12-18T05:09:57.622Z,12.40
2022-12-18T05:14:59.084Z,10.90
2022-12-18T05:20:00.396Z,12.43
2022-12-18T05:25:01.749Z,11.15
2022-12-18T05:30:03.376Z,16.30
2022-12-18T05:35:05.358Z,15.50
2022-12-18T05:40:07.131Z,13.52
2022-12-18T05:45:08.642Z,13.02
2022-12-18T05:50:10.069Z,11.38
2022-12-18T05:55:11.403Z,10.40
2022-12-18T06:00:13.143Z,9.65
2022-12-18T06:05:14.814Z,11.50
2022-12-18T06:10:16.189Z,14.60
2022-12-18T06:15:18.097Z,15.05
2022-12-18T06:20:19.784Z,11.77
2022-12-18T06:25:21.115Z,15.15
2022-12-18T06:30:22.510Z,15.07
2022-12-18T06:35:24.082Z,14.90
2022-12-18T06:40:25.416Z,11.40
2022-12-18T06:45:26.830Z,20.33
2022-12-18T06:50:28.553Z,13.45
2022-12-18T06:55:29.861Z,12.65
2022-12-18T07:00:31.380Z,12.52
2022-12-18T07:05:32.849Z,14.30
2022-12-18T07:10:34.163Z,11.10
2022-12-18T07:15:35.574Z,14.23
2022-12-18T07:20:37.254Z,12.95
2022-12-18T07:25:38.642Z,13.00
2022-12-18T07:30:39.975Z,12.75
2022-12-18T07:35:41.281Z,18.80
2022-12-18T07:40:42.603Z,13.55
2022-12-18T07:45:44.528Z,23.00
2022-12-18T07:50:45.964Z,19.77
2022-12-18T07:56:25.056Z,17.50
2022-12-18T08:01:10.017Z,11.32
2022-12-18T08:06:12.934Z,27.38
2022-12-18T08:11:14.287Z,12.23
2022-12-18T08:16:15.669Z,17.02
2022-12-18T08:21:19.225Z,12.57
2022-12-18T08:26:23.810Z,11.95
2022-12-18T08:31:25.903Z,13.05
2022-12-18T08:36:27.514Z,13.05
2022-12-18T08:41:28.833Z,12.85
2022-12-18T08:46:34.327Z,20.75
2022-12-18T08:51:36.776Z,12.32
2022-12-18T08:56:38.187Z,19.65
2022-12-18T09:01:39.708Z,14.20
2022-12-18T09:06:41.214Z,13.65
2022-12-18T09:11:42.621Z,11.13
2022-12-18T09:16:44.064Z,13.35
2022-12-18T09:21:48.288Z,16.25
2022-12-18T09:26:57.568Z,13.02
2022-12-18T09:31:59.479Z,16.52
2022-12-18T09:37:00.873Z,14.00
2022-12-18T09:42:02.352Z,13.55
2022-12-18T09:47:10.369Z,16.50
2022-12-18T09:52:18.510Z,16.43
2022-12-18T09:57:22.501Z,18.47
2022-12-18T10:02:25.583Z,11.85
2022-12-18T10:07:36.226Z,11.95
2022-12-18T10:12:44.347Z,12.65
2022-12-18T10:17:54.511Z,17.60
2022-12-18T10:23:09.138Z,17.75
2022-12-18T10:28:14.477Z,14.07
2022-12-18T10:33:17.178Z,10.05
2022-12-18T10:38:18.764Z,12.13
2022-12-18T10:43:21.407Z,14.70
2022-12-18T10:48:23.099Z,14.07
2022-12-18T10:53:28.767Z,11.85
2022-12-18T10:58:37.519Z,14.45
2022-12-18T11:03:38.946Z,15.82
2022-12-18T11:08:41.607Z,12.02
2022-12-18T11:13:49.567Z,10.70
2022-12-18T11:18:50.915Z,12.52
2022-12-18T11:23:53.138Z,14.68
2022-12-18T11:29:08.511Z,14.35
2022-12-18T11:34:28.463Z,18.40
2022-12-18T11:39:30.205Z,15.27
2022-12-18T11:44:37.621Z,14.80
2022-12-18T11:49:41.377Z,12.93
2022-12-18T11:54:42.815Z,14.02
2022-12-18T12:00:02.961Z,15.05
2022-12-18T12:10:31.474Z,17.33
2022-12-18T12:15:47.840Z,17.73
2022-12-18T12:21:12.929Z,16.52
2022-12-18T12:26:27.192Z,12.82
2022-12-18T12:31:28.531Z,16.98
2022-12-18T12:36:41.887Z,13.45
2022-12-18T12:42:02.244Z,17.38
2022-12-18T12:47:10.384Z,18.98
2022-12-18T12:52:14.796Z,16.50
2022-12-18T12:57:36.874Z,14.95
2022-12-18T13:02:53.890Z,18.83
2022-12-18T13:07:58.576Z,18.10
2022-12-18T13:13:03.747Z,20.90
2022-12-18T13:18:11.043Z,16.25
2022-12-18T13:23:24.701Z,16.60
2022-12-18T13:28:44.510Z,16.25
2022-12-18T13:34:16.970Z,19.15
2022-12-18T13:39:34.884Z,15.90
2022-12-18T13:44:40.866Z,18.40
2022-12-18T13:49:44.355Z,17.55
2022-12-18T13:54:47.978Z,13.50
2022-12-18T13:59:49.353Z,17.85
2022-12-18T14:04:51.515Z,18.10
2022-12-18T14:10:01.871Z,19.25
2022-12-18T14:15:24.102Z,19.13
2022-12-18T14:20:26.388Z,15.98
2022-12-18T14:25:28.615Z,13.18
2022-12-18T14:30:37.285Z,21.88
2022-12-18T14:35:40.324Z,19.38
2022-12-18T14:40:41.675Z,18.15
2022-12-18T14:45:45.327Z,17.15
2022-12-18T14:50:56.588Z,18.35
2022-12-18T14:55:57.939Z,20.83
2022-12-18T15:00:59.401Z,17.63
2022-12-18T15:06:16.313Z,18.20
2022-12-18T15:11:27.259Z,17.95
2022-12-18T15:16:28.769Z,17.88
2022-12-18T15:21:32.490Z,16.73
2022-12-18T15:26:37.074Z,17.70
2022-12-18T15:31:38.714Z,14.13
2022-12-18T15:36:40.232Z,16.35
2022-12-18T15:42:02.630Z,23.80
2022-12-18T15:47:04.176Z,17.05
2022-12-18T15:52:05.816Z,19.92
2022-12-18T15:57:26.202Z,21.30
2022-12-18T16:02:29.287Z,19.70
2022-12-18T16:07:31.105Z,21.50
2022-12-18T16:12:32.550Z,19.80
2022-12-18T16:17:34.178Z,20.35
2022-12-18T16:22:35.493Z,19.52
2022-12-18T16:27:37.295Z,17.38
2022-12-18T16:32:38.635Z,22.25
2022-12-18T16:37:40.477Z,17.67
2022-12-18T16:42:42.699Z,18.60
2022-12-18T16:47:44.540Z,21.60
2022-12-18T16:52:45.934Z,22.40
2022-12-18T16:57:47.237Z,23.27
2022-12-18T17:02:48.821Z,23.42
2022-12-18T17:07:50.251Z,21.65
2022-12-18T17:12:51.559Z,20.00
2022-12-18T17:17:52.875Z,19.42
2022-12-18T17:22:54.988Z,24.50
2022-12-18T17:28:00.485Z,22.63
2022-12-18T17:33:01.843Z,18.88
2022-12-18T17:38:03.182Z,21.92
2022-12-18T17:43:04.502Z,21.70
2022-12-18T17:48:06.584Z,17.98
2022-12-18T17:53:08.410Z,28.55
2022-12-18T17:58:09.883Z,27.33
2022-12-18T18:03:11.432Z,33.75
2022-12-18T18:08:13.391Z,21.40
2022-12-18T18:13:43.382Z,25.63
2022-12-18T18:18:47.877Z,27.33
2022-12-18T18:23:49.200Z,20.35
2022-12-18T18:28:53.962Z,22.77
2022-12-18T18:33:56.130Z,24.95
2022-12-18T18:39:01.111Z,19.83
2022-12-18T18:44:02.441Z,20.08
2022-12-18T18:49:05.498Z,23.20
2022-12-18T18:54:06.902Z,23.77
2022-12-18T18:59:08.210Z,31.60
2022-12-18T19:04:09.632Z,25.80
2022-12-18T19:09:10.995Z,26.10
2022-12-18T19:14:13.186Z,28.77
2022-12-18T19:19:14.802Z,23.38
2022-12-18T19:24:16.400Z,24.98
2022-12-18T19:29:18.161Z,24.42
2022-12-18T19:34:19.611Z,37.35
2022-12-18T19:39:20.958Z,28.17
2022-12-18T19:44:22.290Z,23.05
2022-12-18T19:49:23.611Z,26.90
2022-12-18T19:54:25.710Z,29.38
2022-12-18T19:59:27.898Z,26.38
2022-12-18T20:04:29.335Z,26.00
2022-12-18T20:09:30.727Z,31.90
2022-12-18T20:14:32.533Z,23.38
2022-12-18T20:20:45.818Z,26.98
2022-12-18T20:24:55.160Z,35.13
2022-12-18T20:29:57.492Z,32.08
2022-12-18T20:34:59.566Z,31.50
2022-12-18T20:40:05.778Z,35.75
2022-12-18T20:45:07.853Z,26.90
2022-12-18T20:50:09.278Z,36.00
2022-12-18T20:55:10.627Z,30.77
2022-12-18T21:00:12.330Z,27.52
2022-12-18T21:05:14.763Z,29.38
2022-12-18T21:10:16.160Z,25.10
2022-12-18T21:15:17.929Z,27.73
2022-12-18T21:20:19.418Z,26.38
2022-12-18T21:25:21.017Z,27.23
2022-12-18T21:30:22.339Z,27.67
2022-12-18T21:35:24.538Z,27.13
2022-12-18T21:40:28.183Z,32.65
2022-12-18T21:45:29.613Z,25.73
2022-12-18T21:50:33.699Z,28.23
2022-12-18T21:55:35.013Z,25.70
2022-12-18T22:00:36.397Z,42.20
2022-12-18T22:05:37.699Z,25.58
2022-12-18T22:10:39.081Z,27.60
2022-12-18T22:15:40.487Z,25.10
2022-12-18T22:20:41.839Z,29.77
2022-12-18T22:25:43.263Z,29.08
2022-12-18T22:30:44.607Z,27.25
2022-12-18T22:35:45.963Z,31.45
2022-12-18T22:40:47.278Z,29.90
2022-12-18T22:45:48.971Z,34.78
2022-12-18T22:50:50.953Z,32.92
2022-12-18T22:56:00.244Z,35.80
2022-12-18T23:01:01.562Z,29.25
2022-12-18T23:06:04.430Z,33.13
2022-12-18T23:11:06.138Z,34.60
2022-12-18T23:16:09.187Z,35.95
2022-12-18T23:21:14.780Z,26.77
2022-12-18T23:26:18.839Z,31.38
2022-12-18T23:31:23.396Z,27.70
2022-12-18T23:36:24.939Z,31.15
2022-12-18T23:41:27.346Z,33.58
2022-12-18T23:46:33.184Z,31.05
2022-12-18T23:51:34.540Z,38.17
2022-12-18T23:56:37.611Z,27.63
